sensor_id;sensor_type;location;lat;lon;timestamp;P1;durP1;ratioP1;P2;durP2;ratioP2
54235;SDS011;40151;43.606;1.472;2023-04-03T00:00:02;3.63;;;1.73;;
54235;SDS011;40151;43.606;1.472;2023-04-03T00:02:29;5.35;;;1.48;;
54235;SDS011;40151;43.606;1.472;2023-04-03T00:04:54;3.72;;;1.40;;
54235;SDS011;40151;43.606;1.472;2023-04-03T00:07:20;2.05;;;1.05;;
54235;SDS011;40151;43.606;1.472;2023-04-03T00:09:45;2.88;;;1.08;;
54235;SDS011;40151;43.606;1.472;2023-04-03T00:12:11;2.28;;;1.20;;
54235;SDS011;40151;43.606;1.472;2023-04-03T00:14:36;2.08;;;1.15;;
54235;SDS011;40151;43.606;1.472;2023-04-03T00:17:02;3.30;;;1.25;;
54235;SDS011;40151;43.606;1.472;2023-04-03T00:19:27;3.50;;;1.45;;
54235;SDS011;40151;43.606;1.472;2023-04-03T00:21:52;2.85;;;1.27;;
54235;SDS011;40151;43.606;1.472;2023-04-03T00:24:18;3.25;;;1.40;;
54235;SDS011;40151;43.606;1.472;2023-04-03T00:26:44;2.75;;;1.20;;
54235;SDS011;40151;43.606;1.472;2023-04-03T00:29:09;2.60;;;1.30;;
54235;SDS011;40151;43.606;1.472;2023-04-03T00:31:35;2.38;;;1.35;;
54235;SDS011;40151;43.606;1.472;2023-04-03T00:34:00;2.55;;;1.38;;
54235;SDS011;40151;43.606;1.472;2023-04-03T00:36:26;3.70;;;1.08;;
54235;SDS011;40151;43.606;1.472;2023-04-03T00:38:51;2.65;;;1.20;;
54235;SDS011;40151;43.606;1.472;2023-04-03T00:41:17;2.42;;;1.20;;
54235;SDS011;40151;43.606;1.472;2023-04-03T00:43:42;1.75;;;1.10;;
54235;SDS011;40151;43.606;1.472;2023-04-03T00:46:07;2.20;;;1.10;;
54235;SDS011;40151;43.606;1.472;2023-04-03T00:48:34;3.42;;;1.30;;
54235;SDS011;40151;43.606;1.472;2023-04-03T00:51:04;3.70;;;1.17;;
54235;SDS011;40151;43.606;1.472;2023-04-03T00:53:46;2.70;;;1.25;;
54235;SDS011;40151;43.606;1.472;2023-04-03T00:56:15;2.47;;;1.20;;
54235;SDS011;40151;43.606;1.472;2023-04-03T00:58:54;2.22;;;1.13;;
54235;SDS011;40151;43.606;1.472;2023-04-03T01:01:25;2.95;;;1.15;;
54235;SDS011;40151;43.606;1.472;2023-04-03T01:03:52;4.40;;;1.40;;
54235;SDS011;40151;43.606;1.472;2023-04-03T01:06:20;2.20;;;1.00;;
54235;SDS011;40151;43.606;1.472;2023-04-03T01:08:50;2.35;;;1.35;;
54235;SDS011;40151;43.606;1.472;2023-04-03T01:11:15;2.00;;;1.10;;
54235;SDS011;40151;43.606;1.472;2023-04-03T01:13:41;2.95;;;1.20;;
54235;SDS011;40151;43.606;1.472;2023-04-03T01:16:07;1.88;;;0.90;;
54235;SDS011;40151;43.606;1.472;2023-04-03T01:18:33;3.33;;;1.25;;
54235;SDS011;40151;43.606;1.472;2023-04-03T01:26:37;3.25;;;1.20;;
54235;SDS011;40151;43.606;1.472;2023-04-03T01:29:03;2.25;;;1.00;;
54235;SDS011;40151;43.606;1.472;2023-04-03T01:34:00;2.13;;;1.10;;
54235;SDS011;40151;43.606;1.472;2023-04-03T01:36:28;1.50;;;0.98;;
54235;SDS011;40151;43.606;1.472;2023-04-03T01:38:56;3.28;;;1.20;;
54235;SDS011;40151;43.606;1.472;2023-04-03T01:41:24;2.53;;;1.10;;
54235;SDS011;40151;43.606;1.472;2023-04-03T01:43:50;1.73;;;0.82;;
54235;SDS011;40151;43.606;1.472;2023-04-03T01:46:16;2.55;;;1.23;;
54235;SDS011;40151;43.606;1.472;2023-04-03T01:48:42;2.20;;;1.20;;
54235;SDS011;40151;43.606;1.472;2023-04-03T01:51:08;2.45;;;1.10;;
54235;SDS011;40151;43.606;1.472;2023-04-03T01:53:34;2.80;;;1.30;;
54235;SDS011;40151;43.606;1.472;2023-04-03T01:55:59;2.97;;;1.33;;
54235;SDS011;40151;43.606;1.472;2023-04-03T01:58:25;1.40;;;1.02;;
54235;SDS011;40151;43.606;1.472;2023-04-03T02:00:51;2.00;;;1.10;;
54235;SDS011;40151;43.606;1.472;2023-04-03T02:03:16;2.67;;;1.33;;
54235;SDS011;40151;43.606;1.472;2023-04-03T02:05:42;3.05;;;1.27;;
54235;SDS011;40151;43.606;1.472;2023-04-03T02:08:08;3.22;;;1.20;;
54235;SDS011;40151;43.606;1.472;2023-04-03T02:10:33;2.10;;;1.25;;
54235;SDS011;40151;43.606;1.472;2023-04-03T02:12:59;1.90;;;1.13;;
54235;SDS011;40151;43.606;1.472;2023-04-03T02:15:24;3.38;;;1.00;;
54235;SDS011;40151;43.606;1.472;2023-04-03T02:17:50;4.88;;;1.52;;
54235;SDS011;40151;43.606;1.472;2023-04-03T02:20:15;2.40;;;1.20;;
54235;SDS011;40151;43.606;1.472;2023-04-03T02:22:41;2.03;;;1.00;;
54235;SDS011;40151;43.606;1.472;2023-04-03T02:25:07;1.77;;;1.00;;
54235;SDS011;40151;43.606;1.472;2023-04-03T02:27:32;2.05;;;1.20;;
54235;SDS011;40151;43.606;1.472;2023-04-03T02:29:58;2.28;;;1.10;;
54235;SDS011;40151;43.606;1.472;2023-04-03T02:32:23;2.83;;;1.20;;
54235;SDS011;40151;43.606;1.472;2023-04-03T02:34:49;3.25;;;1.45;;
54235;SDS011;40151;43.606;1.472;2023-04-03T02:37:14;2.67;;;1.08;;
54235;SDS011;40151;43.606;1.472;2023-04-03T02:39:40;2.10;;;1.10;;
54235;SDS011;40151;43.606;1.472;2023-04-03T02:42:05;2.05;;;1.02;;
54235;SDS011;40151;43.606;1.472;2023-04-03T02:44:32;2.92;;;1.10;;
54235;SDS011;40151;43.606;1.472;2023-04-03T02:46:57;2.85;;;1.10;;
54235;SDS011;40151;43.606;1.472;2023-04-03T02:49:23;2.72;;;1.20;;
54235;SDS011;40151;43.606;1.472;2023-04-03T02:51:48;3.22;;;1.70;;
54235;SDS011;40151;43.606;1.472;2023-04-03T02:54:14;2.92;;;1.40;;
54235;SDS011;40151;43.606;1.472;2023-04-03T02:56:39;2.08;;;1.20;;
54235;SDS011;40151;43.606;1.472;2023-04-03T02:59:05;1.77;;;1.05;;
54235;SDS011;40151;43.606;1.472;2023-04-03T03:01:31;4.07;;;1.48;;
54235;SDS011;40151;43.606;1.472;2023-04-03T03:03:58;2.42;;;1.10;;
54235;SDS011;40151;43.606;1.472;2023-04-03T03:06:24;2.15;;;1.10;;
54235;SDS011;40151;43.606;1.472;2023-04-03T03:08:50;2.28;;;1.13;;
54235;SDS011;40151;43.606;1.472;2023-04-03T03:11:15;2.00;;;1.00;;
54235;SDS011;40151;43.606;1.472;2023-04-03T03:13:40;1.75;;;1.08;;
54235;SDS011;40151;43.606;1.472;2023-04-03T03:16:06;1.98;;;1.20;;
54235;SDS011;40151;43.606;1.472;2023-04-03T03:18:32;1.95;;;1.10;;
54235;SDS011;40151;43.606;1.472;2023-04-03T03:20:59;3.15;;;1.33;;
54235;SDS011;40151;43.606;1.472;2023-04-03T03:23:26;1.70;;;1.08;;
54235;SDS011;40151;43.606;1.472;2023-04-03T03:25:56;2.55;;;1.10;;
54235;SDS011;40151;43.606;1.472;2023-04-03T03:28:26;2.85;;;1.10;;
54235;SDS011;40151;43.606;1.472;2023-04-03T03:30:51;2.63;;;1.35;;
54235;SDS011;40151;43.606;1.472;2023-04-03T03:33:17;2.13;;;1.30;;
54235;SDS011;40151;43.606;1.472;2023-04-03T03:35:43;1.95;;;1.15;;
54235;SDS011;40151;43.606;1.472;2023-04-03T03:38:09;1.83;;;1.00;;
54235;SDS011;40151;43.606;1.472;2023-04-03T03:40:35;1.80;;;1.05;;
54235;SDS011;40151;43.606;1.472;2023-04-03T03:43:01;3.13;;;1.30;;
54235;SDS011;40151;43.606;1.472;2023-04-03T03:45:26;2.75;;;1.48;;
54235;SDS011;40151;43.606;1.472;2023-04-03T03:47:52;1.95;;;1.10;;
54235;SDS011;40151;43.606;1.472;2023-04-03T03:50:18;4.45;;;1.38;;
54235;SDS011;40151;43.606;1.472;2023-04-03T03:52:43;1.73;;;1.20;;
54235;SDS011;40151;43.606;1.472;2023-04-03T03:55:09;1.40;;;0.90;;
54235;SDS011;40151;43.606;1.472;2023-04-03T03:57:35;2.35;;;1.35;;
54235;SDS011;40151;43.606;1.472;2023-04-03T04:00:00;1.48;;;1.20;;
54235;SDS011;40151;43.606;1.472;2023-04-03T04:02:26;2.47;;;1.00;;
54235;SDS011;40151;43.606;1.472;2023-04-03T04:04:51;2.17;;;1.15;;
54235;SDS011;40151;43.606;1.472;2023-04-03T04:07:17;1.85;;;1.10;;
54235;SDS011;40151;43.606;1.472;2023-04-03T04:09:42;2.15;;;0.90;;
54235;SDS011;40151;43.606;1.472;2023-04-03T04:12:08;2.95;;;1.08;;
54235;SDS011;40151;43.606;1.472;2023-04-03T04:14:33;1.90;;;1.30;;
54235;SDS011;40151;43.606;1.472;2023-04-03T04:16:59;3.22;;;1.30;;
54235;SDS011;40151;43.606;1.472;2023-04-03T04:19:24;2.45;;;1.33;;
54235;SDS011;40151;43.606;1.472;2023-04-03T04:21:49;2.55;;;1.25;;
54235;SDS011;40151;43.606;1.472;2023-04-03T04:24:15;1.83;;;1.10;;
54235;SDS011;40151;43.606;1.472;2023-04-03T04:26:41;2.10;;;1.38;;
54235;SDS011;40151;43.606;1.472;2023-04-03T04:29:08;2.78;;;1.35;;
54235;SDS011;40151;43.606;1.472;2023-04-03T04:31:34;2.28;;;1.17;;
54235;SDS011;40151;43.606;1.472;2023-04-03T04:33:59;2.58;;;1.30;;
54235;SDS011;40151;43.606;1.472;2023-04-03T04:36:25;2.35;;;1.00;;
54235;SDS011;40151;43.606;1.472;2023-04-03T04:38:51;2.75;;;1.35;;
54235;SDS011;40151;43.606;1.472;2023-04-03T04:41:18;2.83;;;1.30;;
54235;SDS011;40151;43.606;1.472;2023-04-03T04:43:47;2.25;;;1.13;;
54235;SDS011;40151;43.606;1.472;2023-04-03T04:46:13;2.08;;;1.30;;
54235;SDS011;40151;43.606;1.472;2023-04-03T04:48:38;1.92;;;1.20;;
54235;SDS011;40151;43.606;1.472;2023-04-03T04:51:05;3.17;;;1.55;;
54235;SDS011;40151;43.606;1.472;2023-04-03T04:53:31;3.42;;;1.30;;
54235;SDS011;40151;43.606;1.472;2023-04-03T04:55:56;2.28;;;1.30;;
54235;SDS011;40151;43.606;1.472;2023-04-03T04:58:21;3.05;;;1.27;;
54235;SDS011;40151;43.606;1.472;2023-04-03T05:00:47;2.58;;;1.33;;
54235;SDS011;40151;43.606;1.472;2023-04-03T05:03:13;3.10;;;1.27;;
54235;SDS011;40151;43.606;1.472;2023-04-03T05:05:38;2.92;;;1.20;;
54235;SDS011;40151;43.606;1.472;2023-04-03T05:08:04;2.50;;;1.30;;
54235;SDS011;40151;43.606;1.472;2023-04-03T05:10:30;2.65;;;1.20;;
54235;SDS011;40151;43.606;1.472;2023-04-03T05:12:56;5.50;;;1.50;;
54235;SDS011;40151;43.606;1.472;2023-04-03T05:15:21;3.58;;;1.40;;
54235;SDS011;40151;43.606;1.472;2023-04-03T05:17:47;3.22;;;1.40;;
54235;SDS011;40151;43.606;1.472;2023-04-03T05:20:12;3.33;;;1.75;;
54235;SDS011;40151;43.606;1.472;2023-04-03T05:22:38;2.92;;;1.10;;
54235;SDS011;40151;43.606;1.472;2023-04-03T05:25:04;2.90;;;1.23;;
54235;SDS011;40151;43.606;1.472;2023-04-03T05:27:30;4.28;;;1.63;;
54235;SDS011;40151;43.606;1.472;2023-04-03T05:29:55;2.70;;;1.40;;
54235;SDS011;40151;43.606;1.472;2023-04-03T05:32:21;4.47;;;1.48;;
54235;SDS011;40151;43.606;1.472;2023-04-03T05:34:47;3.25;;;1.25;;
54235;SDS011;40151;43.606;1.472;2023-04-03T05:37:13;4.30;;;1.50;;
54235;SDS011;40151;43.606;1.472;2023-04-03T05:39:38;4.97;;;1.25;;
54235;SDS011;40151;43.606;1.472;2023-04-03T05:42:06;3.88;;;1.50;;
54235;SDS011;40151;43.606;1.472;2023-04-03T05:44:32;4.47;;;1.20;;
54235;SDS011;40151;43.606;1.472;2023-04-03T05:46:57;3.72;;;1.25;;
54235;SDS011;40151;43.606;1.472;2023-04-03T05:49:22;5.90;;;1.42;;
54235;SDS011;40151;43.606;1.472;2023-04-03T05:51:48;3.45;;;1.52;;
54235;SDS011;40151;43.606;1.472;2023-04-03T05:56:39;6.60;;;1.95;;
54235;SDS011;40151;43.606;1.472;2023-04-03T05:59:04;5.38;;;2.05;;
54235;SDS011;40151;43.606;1.472;2023-04-03T06:01:30;4.13;;;1.70;;
54235;SDS011;40151;43.606;1.472;2023-04-03T06:03:55;5.35;;;1.67;;
54235;SDS011;40151;43.606;1.472;2023-04-03T06:06:23;4.40;;;1.70;;
54235;SDS011;40151;43.606;1.472;2023-04-03T06:08:48;3.60;;;1.70;;
54235;SDS011;40151;43.606;1.472;2023-04-03T06:11:15;3.20;;;1.58;;
54235;SDS011;40151;43.606;1.472;2023-04-03T06:13:40;4.60;;;1.70;;
54235;SDS011;40151;43.606;1.472;2023-04-03T06:16:06;3.83;;;1.42;;
54235;SDS011;40151;43.606;1.472;2023-04-03T06:18:31;4.85;;;1.48;;
54235;SDS011;40151;43.606;1.472;2023-04-03T06:20:56;4.60;;;1.88;;
54235;SDS011;40151;43.606;1.472;2023-04-03T06:23:23;7.22;;;2.97;;
54235;SDS011;40151;43.606;1.472;2023-04-03T06:25:48;5.68;;;2.67;;
54235;SDS011;40151;43.606;1.472;2023-04-03T06:28:13;6.18;;;2.25;;
54235;SDS011;40151;43.606;1.472;2023-04-03T06:30:39;5.40;;;2.15;;
54235;SDS011;40151;43.606;1.472;2023-04-03T06:33:05;4.63;;;1.90;;
54235;SDS011;40151;43.606;1.472;2023-04-03T06:35:30;4.90;;;1.90;;
54235;SDS011;40151;43.606;1.472;2023-04-03T06:37:56;3.72;;;1.50;;
54235;SDS011;40151;43.606;1.472;2023-04-03T06:40:23;4.50;;;2.28;;
54235;SDS011;40151;43.606;1.472;2023-04-03T06:42:50;6.93;;;1.83;;
54235;SDS011;40151;43.606;1.472;2023-04-03T06:45:15;3.38;;;1.65;;
54235;SDS011;40151;43.606;1.472;2023-04-03T06:47:41;3.83;;;1.90;;
54235;SDS011;40151;43.606;1.472;2023-04-03T06:50:06;5.70;;;1.83;;
54235;SDS011;40151;43.606;1.472;2023-04-03T06:52:33;3.72;;;1.73;;
54235;SDS011;40151;43.606;1.472;2023-04-03T06:54:59;3.03;;;1.30;;
54235;SDS011;40151;43.606;1.472;2023-04-03T06:57:25;3.33;;;1.55;;
54235;SDS011;40151;43.606;1.472;2023-04-03T06:59:51;3.90;;;1.60;;
54235;SDS011;40151;43.606;1.472;2023-04-03T07:02:17;3.30;;;1.45;;
54235;SDS011;40151;43.606;1.472;2023-04-03T07:04:42;4.03;;;1.80;;
54235;SDS011;40151;43.606;1.472;2023-04-03T07:07:07;3.85;;;1.90;;
54235;SDS011;40151;43.606;1.472;2023-04-03T07:09:33;3.88;;;1.60;;
54235;SDS011;40151;43.606;1.472;2023-04-03T07:11:58;3.22;;;1.40;;
54235;SDS011;40151;43.606;1.472;2023-04-03T07:14:24;2.78;;;1.40;;
54235;SDS011;40151;43.606;1.472;2023-04-03T07:16:50;3.40;;;1.58;;
54235;SDS011;40151;43.606;1.472;2023-04-03T07:19:15;4.20;;;1.60;;
54235;SDS011;40151;43.606;1.472;2023-04-03T07:21:42;3.00;;;1.52;;
54235;SDS011;40151;43.606;1.472;2023-04-03T07:24:08;4.80;;;1.30;;
54235;SDS011;40151;43.606;1.472;2023-04-03T07:26:33;3.25;;;1.42;;
54235;SDS011;40151;43.606;1.472;2023-04-03T07:28:59;3.85;;;1.50;;
54235;SDS011;40151;43.606;1.472;2023-04-03T07:31:24;2.63;;;1.42;;
54235;SDS011;40151;43.606;1.472;2023-04-03T07:33:51;5.07;;;2.30;;
54235;SDS011;40151;43.606;1.472;2023-04-03T07:36:17;2.88;;;1.48;;
54235;SDS011;40151;43.606;1.472;2023-04-03T07:38:44;3.42;;;1.55;;
54235;SDS011;40151;43.606;1.472;2023-04-03T07:41:17;3.55;;;1.70;;
54235;SDS011;40151;43.606;1.472;2023-04-03T07:43:45;3.55;;;1.50;;
54235;SDS011;40151;43.606;1.472;2023-04-03T07:46:12;4.55;;;1.63;;
54235;SDS011;40151;43.606;1.472;2023-04-03T07:48:38;4.22;;;1.60;;
54235;SDS011;40151;43.606;1.472;2023-04-03T07:51:04;3.60;;;1.55;;
54235;SDS011;40151;43.606;1.472;2023-04-03T07:53:30;2.75;;;1.40;;
54235;SDS011;40151;43.606;1.472;2023-04-03T07:55:57;3.38;;;1.70;;
54235;SDS011;40151;43.606;1.472;2023-04-03T07:58:23;3.60;;;1.80;;
54235;SDS011;40151;43.606;1.472;2023-04-03T08:00:48;2.38;;;1.40;;
54235;SDS011;40151;43.606;1.472;2023-04-03T08:03:14;2.63;;;1.60;;
54235;SDS011;40151;43.606;1.472;2023-04-03T08:05:44;2.03;;;1.40;;
54235;SDS011;40151;43.606;1.472;2023-04-03T08:08:12;3.28;;;1.60;;
54235;SDS011;40151;43.606;1.472;2023-04-03T08:10:39;3.70;;;1.70;;
54235;SDS011;40151;43.606;1.472;2023-04-03T08:13:05;3.80;;;1.63;;
54235;SDS011;40151;43.606;1.472;2023-04-03T08:15:31;3.00;;;1.90;;
54235;SDS011;40151;43.606;1.472;2023-04-03T08:17:57;3.63;;;1.48;;
54235;SDS011;40151;43.606;1.472;2023-04-03T08:20:23;2.80;;;1.73;;
54235;SDS011;40151;43.606;1.472;2023-04-03T08:22:49;3.40;;;1.52;;
54235;SDS011;40151;43.606;1.472;2023-04-03T08:25:15;4.38;;;1.85;;
54235;SDS011;40151;43.606;1.472;2023-04-03T08:27:42;2.83;;;1.55;;
54235;SDS011;40151;43.606;1.472;2023-04-03T08:30:08;3.05;;;1.63;;
54235;SDS011;40151;43.606;1.472;2023-04-03T08:32:34;3.20;;;1.60;;
54235;SDS011;40151;43.606;1.472;2023-04-03T08:35:00;2.70;;;1.40;;
54235;SDS011;40151;43.606;1.472;2023-04-03T08:37:26;3.55;;;1.42;;
54235;SDS011;40151;43.606;1.472;2023-04-03T08:39:52;3.70;;;1.60;;
54235;SDS011;40151;43.606;1.472;2023-04-03T08:50:41;3.70;;;1.73;;
54235;SDS011;40151;43.606;1.472;2023-04-03T08:53:20;4.05;;;1.75;;
54235;SDS011;40151;43.606;1.472;2023-04-03T08:55:49;3.53;;;1.77;;
54235;SDS011;40151;43.606;1.472;2023-04-03T08:58:18;3.05;;;1.50;;
54235;SDS011;40151;43.606;1.472;2023-04-03T09:00:50;3.95;;;1.77;;
54235;SDS011;40151;43.606;1.472;2023-04-03T09:03:24;3.15;;;1.63;;
54235;SDS011;40151;43.606;1.472;2023-04-03T09:14:02;4.28;;;1.80;;
54235;SDS011;40151;43.606;1.472;2023-04-03T09:17:00;3.53;;;1.40;;
54235;SDS011;40151;43.606;1.472;2023-04-03T09:19:38;4.95;;;1.65;;
54235;SDS011;40151;43.606;1.472;2023-04-03T09:24:39;2.97;;;1.65;;
54235;SDS011;40151;43.606;1.472;2023-04-03T09:27:08;3.35;;;1.75;;
54235;SDS011;40151;43.606;1.472;2023-04-03T09:29:39;3.38;;;1.60;;
54235;SDS011;40151;43.606;1.472;2023-04-03T09:34:52;3.42;;;1.70;;
54235;SDS011;40151;43.606;1.472;2023-04-03T09:40:38;3.58;;;1.50;;
54235;SDS011;40151;43.606;1.472;2023-04-03T09:45:43;3.75;;;1.63;;
54235;SDS011;40151;43.606;1.472;2023-04-03T09:50:38;3.33;;;1.45;;
54235;SDS011;40151;43.606;1.472;2023-04-03T09:53:27;3.83;;;1.77;;
54235;SDS011;40151;43.606;1.472;2023-04-03T09:56:25;2.58;;;1.38;;
54235;SDS011;40151;43.606;1.472;2023-04-03T10:01:31;2.72;;;1.58;;
54235;SDS011;40151;43.606;1.472;2023-04-03T10:04:03;2.50;;;1.50;;
54235;SDS011;40151;43.606;1.472;2023-04-03T10:06:31;4.55;;;1.70;;
54235;SDS011;40151;43.606;1.472;2023-04-03T10:09:05;2.88;;;1.65;;
54235;SDS011;40151;43.606;1.472;2023-04-03T10:12:14;3.00;;;1.65;;
54235;SDS011;40151;43.606;1.472;2023-04-03T10:14:38;4.07;;;1.92;;
54235;SDS011;40151;43.606;1.472;2023-04-03T10:19:47;3.80;;;1.50;;
54235;SDS011;40151;43.606;1.472;2023-04-03T10:28:14;3.97;;;1.77;;
54235;SDS011;40151;43.606;1.472;2023-04-03T10:31:04;3.08;;;1.63;;
54235;SDS011;40151;43.606;1.472;2023-04-03T10:36:43;4.22;;;1.80;;
54235;SDS011;40151;43.606;1.472;2023-04-03T10:44:56;4.43;;;1.80;;
54235;SDS011;40151;43.606;1.472;2023-04-03T10:47:24;3.58;;;1.67;;
54235;SDS011;40151;43.606;1.472;2023-04-03T10:52:39;3.40;;;1.48;;
54235;SDS011;40151;43.606;1.472;2023-04-03T10:55:40;3.50;;;1.70;;
54235;SDS011;40151;43.606;1.472;2023-04-03T10:58:26;3.53;;;1.85;;
54235;SDS011;40151;43.606;1.472;2023-04-03T11:01:16;4.68;;;1.80;;
54235;SDS011;40151;43.606;1.472;2023-04-03T11:03:46;3.17;;;1.90;;
54235;SDS011;40151;43.606;1.472;2023-04-03T11:06:16;2.67;;;1.67;;
54235;SDS011;40151;43.606;1.472;2023-04-03T11:08:45;4.25;;;1.67;;
54235;SDS011;40151;43.606;1.472;2023-04-03T11:11:17;3.88;;;1.30;;
54235;SDS011;40151;43.606;1.472;2023-04-03T11:16:31;3.45;;;1.60;;
54235;SDS011;40151;43.606;1.472;2023-04-03T11:19:15;2.63;;;1.38;;
54235;SDS011;40151;43.606;1.472;2023-04-03T11:22:32;2.30;;;1.50;;
54235;SDS011;40151;43.606;1.472;2023-04-03T11:24:41;4.60;;;1.75;;
54235;SDS011;40151;43.606;1.472;2023-04-03T11:27:11;3.25;;;1.30;;
54235;SDS011;40151;43.606;1.472;2023-04-03T11:29:43;2.78;;;1.40;;
54235;SDS011;40151;43.606;1.472;2023-04-03T11:32:27;3.28;;;1.55;;
54235;SDS011;40151;43.606;1.472;2023-04-03T11:35:04;3.17;;;1.55;;
54235;SDS011;40151;43.606;1.472;2023-04-03T11:37:36;2.83;;;1.40;;
54235;SDS011;40151;43.606;1.472;2023-04-03T11:40:19;2.97;;;1.40;;
54235;SDS011;40151;43.606;1.472;2023-04-03T11:43:41;3.42;;;1.48;;
54235;SDS011;40151;43.606;1.472;2023-04-03T11:50:53;3.58;;;1.63;;
54235;SDS011;40151;43.606;1.472;2023-04-03T11:53:35;2.35;;;1.30;;
54235;SDS011;40151;43.606;1.472;2023-04-03T12:04:13;2.70;;;1.30;;
54235;SDS011;40151;43.606;1.472;2023-04-03T12:06:41;2.30;;;1.50;;
54235;SDS011;40151;43.606;1.472;2023-04-03T12:09:22;3.40;;;1.38;;
54235;SDS011;40151;43.606;1.472;2023-04-03T12:11:47;1.98;;;1.17;;
54235;SDS011;40151;43.606;1.472;2023-04-03T12:14:14;2.85;;;1.20;;
54235;SDS011;40151;43.606;1.472;2023-04-03T12:16:44;3.63;;;1.60;;
54235;SDS011;40151;43.606;1.472;2023-04-03T12:29:27;2.60;;;1.20;;
54235;SDS011;40151;43.606;1.472;2023-04-03T12:40:49;2.38;;;1.45;;
54235;SDS011;40151;43.606;1.472;2023-04-03T12:48:31;1.77;;;1.17;;
54235;SDS011;40151;43.606;1.472;2023-04-03T12:50:59;2.33;;;1.27;;
54235;SDS011;40151;43.606;1.472;2023-04-03T12:53:25;2.67;;;1.20;;
54235;SDS011;40151;43.606;1.472;2023-04-03T12:56:18;3.13;;;1.40;;
54235;SDS011;40151;43.606;1.472;2023-04-03T12:58:48;2.72;;;1.30;;
54235;SDS011;40151;43.606;1.472;2023-04-03T13:01:16;2.67;;;1.30;;
54235;SDS011;40151;43.606;1.472;2023-04-03T13:03:45;2.50;;;1.42;;
54235;SDS011;40151;43.606;1.472;2023-04-03T13:06:21;3.95;;;1.38;;
54235;SDS011;40151;43.606;1.472;2023-04-03T13:08:52;2.65;;;1.40;;
54235;SDS011;40151;43.606;1.472;2023-04-03T13:11:23;2.50;;;1.38;;
54235;SDS011;40151;43.606;1.472;2023-04-03T13:14:04;2.97;;;1.50;;
54235;SDS011;40151;43.606;1.472;2023-04-03T13:16:39;2.72;;;1.40;;
54235;SDS011;40151;43.606;1.472;2023-04-03T13:19:06;2.42;;;1.30;;
54235;SDS011;40151;43.606;1.472;2023-04-03T13:21:42;2.08;;;1.23;;
54235;SDS011;40151;43.606;1.472;2023-04-03T13:24:09;2.63;;;1.35;;
54235;SDS011;40151;43.606;1.472;2023-04-03T13:26:35;2.70;;;1.40;;
54235;SDS011;40151;43.606;1.472;2023-04-03T13:29:06;2.65;;;1.35;;
54235;SDS011;40151;43.606;1.472;2023-04-03T13:31:42;2.20;;;1.40;;
54235;SDS011;40151;43.606;1.472;2023-04-03T13:36:44;2.47;;;1.27;;
54235;SDS011;40151;43.606;1.472;2023-04-03T13:39:33;2.72;;;1.38;;
54235;SDS011;40151;43.606;1.472;2023-04-03T13:42:01;2.30;;;1.30;;
54235;SDS011;40151;43.606;1.472;2023-04-03T13:44:40;2.67;;;1.40;;
54235;SDS011;40151;43.606;1.472;2023-04-03T13:47:19;2.58;;;1.40;;
54235;SDS011;40151;43.606;1.472;2023-04-03T13:52:40;2.08;;;1.00;;
54235;SDS011;40151;43.606;1.472;2023-04-03T14:06:06;2.83;;;1.40;;
54235;SDS011;40151;43.606;1.472;2023-04-03T14:08:33;2.60;;;1.40;;
54235;SDS011;40151;43.606;1.472;2023-04-03T14:10:58;2.40;;;1.38;;
54235;SDS011;40151;43.606;1.472;2023-04-03T14:13:25;2.85;;;1.70;;
54235;SDS011;40151;43.606;1.472;2023-04-03T14:15:50;3.40;;;1.23;;
54235;SDS011;40151;43.606;1.472;2023-04-03T14:18:17;3.05;;;1.40;;
54235;SDS011;40151;43.606;1.472;2023-04-03T14:20:44;2.25;;;1.30;;
54235;SDS011;40151;43.606;1.472;2023-04-03T14:23:10;2.45;;;1.38;;
54235;SDS011;40151;43.606;1.472;2023-04-03T14:25:36;2.75;;;1.48;;
54235;SDS011;40151;43.606;1.472;2023-04-03T14:28:07;3.28;;;1.27;;
54235;SDS011;40151;43.606;1.472;2023-04-03T14:30:41;3.15;;;1.40;;
54235;SDS011;40151;43.606;1.472;2023-04-03T14:33:06;2.50;;;1.20;;
54235;SDS011;40151;43.606;1.472;2023-04-03T14:35:35;1.75;;;1.00;;
54235;SDS011;40151;43.606;1.472;2023-04-03T14:38:02;2.08;;;1.42;;
54235;SDS011;40151;43.606;1.472;2023-04-03T14:40:27;3.92;;;1.45;;
54235;SDS011;40151;43.606;1.472;2023-04-03T14:42:53;3.10;;;1.40;;
54235;SDS011;40151;43.606;1.472;2023-04-03T14:45:21;2.10;;;1.40;;
54235;SDS011;40151;43.606;1.472;2023-04-03T14:47:48;2.40;;;1.27;;
54235;SDS011;40151;43.606;1.472;2023-04-03T14:50:18;3.17;;;1.15;;
54235;SDS011;40151;43.606;1.472;2023-04-03T14:52:46;2.35;;;1.20;;
54235;SDS011;40151;43.606;1.472;2023-04-03T14:55:14;1.90;;;0.93;;
54235;SDS011;40151;43.606;1.472;2023-04-03T14:57:41;2.13;;;1.30;;
54235;SDS011;40151;43.606;1.472;2023-04-03T15:00:10;2.53;;;1.38;;
54235;SDS011;40151;43.606;1.472;2023-04-03T15:02:41;3.38;;;1.40;;
54235;SDS011;40151;43.606;1.472;2023-04-03T15:05:08;2.20;;;1.25;;
54235;SDS011;40151;43.606;1.472;2023-04-03T15:07:36;2.58;;;1.58;;
54235;SDS011;40151;43.606;1.472;2023-04-03T15:10:09;2.15;;;1.30;;
54235;SDS011;40151;43.606;1.472;2023-04-03T15:12:38;2.15;;;1.40;;
54235;SDS011;40151;43.606;1.472;2023-04-03T15:15:04;2.25;;;1.23;;
54235;SDS011;40151;43.606;1.472;2023-04-03T15:17:30;2.55;;;1.25;;
54235;SDS011;40151;43.606;1.472;2023-04-03T15:19:55;3.05;;;1.23;;
54235;SDS011;40151;43.606;1.472;2023-04-03T15:22:21;2.03;;;1.30;;
54235;SDS011;40151;43.606;1.472;2023-04-03T15:24:46;3.13;;;1.40;;
54235;SDS011;40151;43.606;1.472;2023-04-03T15:27:13;2.83;;;1.50;;
54235;SDS011;40151;43.606;1.472;2023-04-03T15:29:39;2.40;;;1.20;;
54235;SDS011;40151;43.606;1.472;2023-04-03T15:32:06;2.80;;;1.27;;
54235;SDS011;40151;43.606;1.472;2023-04-03T15:34:33;2.63;;;1.50;;
54235;SDS011;40151;43.606;1.472;2023-04-03T15:36:59;1.83;;;1.10;;
54235;SDS011;40151;43.606;1.472;2023-04-03T15:39:25;3.08;;;1.35;;
54235;SDS011;40151;43.606;1.472;2023-04-03T15:41:51;2.50;;;1.40;;
54235;SDS011;40151;43.606;1.472;2023-04-03T15:44:17;2.83;;;1.40;;
54235;SDS011;40151;43.606;1.472;2023-04-03T15:46:43;3.15;;;1.40;;
54235;SDS011;40151;43.606;1.472;2023-04-03T15:49:10;3.30;;;1.30;;
54235;SDS011;40151;43.606;1.472;2023-04-03T15:51:36;2.95;;;1.30;;
54235;SDS011;40151;43.606;1.472;2023-04-03T15:54:02;2.42;;;1.40;;
54235;SDS011;40151;43.606;1.472;2023-04-03T15:56:27;2.90;;;1.63;;
54235;SDS011;40151;43.606;1.472;2023-04-03T15:58:53;2.35;;;1.42;;
54235;SDS011;40151;43.606;1.472;2023-04-03T16:01:18;1.90;;;1.20;;
54235;SDS011;40151;43.606;1.472;2023-04-03T16:03:44;3.65;;;1.20;;
54235;SDS011;40151;43.606;1.472;2023-04-03T16:06:16;3.75;;;1.50;;
54235;SDS011;40151;43.606;1.472;2023-04-03T16:08:44;2.95;;;1.25;;
54235;SDS011;40151;43.606;1.472;2023-04-03T16:11:09;3.40;;;1.48;;
54235;SDS011;40151;43.606;1.472;2023-04-03T16:13:35;3.47;;;1.50;;
54235;SDS011;40151;43.606;1.472;2023-04-03T16:16:01;3.90;;;1.40;;
54235;SDS011;40151;43.606;1.472;2023-04-03T16:18:27;3.75;;;1.48;;
54235;SDS011;40151;43.606;1.472;2023-04-03T16:20:54;3.75;;;1.70;;
54235;SDS011;40151;43.606;1.472;2023-04-03T16:23:20;3.28;;;1.55;;
54235;SDS011;40151;43.606;1.472;2023-04-03T16:25:46;4.47;;;1.70;;
54235;SDS011;40151;43.606;1.472;2023-04-03T16:28:15;5.80;;;1.75;;
54235;SDS011;40151;43.606;1.472;2023-04-03T16:30:42;3.92;;;1.70;;
54235;SDS011;40151;43.606;1.472;2023-04-03T16:33:10;6.00;;;1.75;;
54235;SDS011;40151;43.606;1.472;2023-04-03T16:35:37;4.45;;;1.67;;
54235;SDS011;40151;43.606;1.472;2023-04-03T16:38:03;9.10;;;2.20;;
54235;SDS011;40151;43.606;1.472;2023-04-03T16:40:28;5.13;;;1.92;;
54235;SDS011;40151;43.606;1.472;2023-04-03T16:42:54;3.45;;;1.65;;
54235;SDS011;40151;43.606;1.472;2023-04-03T16:45:19;4.80;;;1.90;;
54235;SDS011;40151;43.606;1.472;2023-04-03T16:47:45;4.95;;;1.95;;
54235;SDS011;40151;43.606;1.472;2023-04-03T16:50:10;3.55;;;1.40;;
54235;SDS011;40151;43.606;1.472;2023-04-03T16:52:36;5.88;;;2.05;;